createdAt,value
2018-05-24T00:01:04.995Z,2.20
2018-05-24T00:03:32.611Z,2.10
2018-05-24T00:06:00.423Z,2.23
2018-05-24T00:08:27.975Z,3.67
2018-05-24T00:10:55.581Z,2.90
2018-05-24T00:13:23.670Z,2.97
2018-05-24T00:15:51.236Z,3.30
2018-05-24T00:18:18.856Z,3.10
2018-05-24T00:20:46.553Z,2.93
2018-05-24T00:23:14.199Z,2.60
2018-05-24T00:25:41.771Z,2.90
2018-05-24T00:28:10.101Z,2.00
2018-05-24T00:30:37.737Z,2.83
2018-05-24T00:33:05.296Z,2.67
2018-05-24T00:35:32.900Z,2.47
2018-05-24T00:38:00.507Z,2.40
2018-05-24T00:40:28.114Z,2.90
2018-05-24T00:42:55.759Z,2.60
2018-05-24T00:45:23.351Z,2.40
2018-05-24T00:47:50.987Z,2.43
2018-05-24T00:50:18.925Z,2.73
2018-05-24T00:52:47.662Z,2.40
2018-05-24T00:55:26.914Z,2.20
2018-05-24T00:57:54.542Z,2.53
2018-05-24T01:00:22.116Z,2.57
2018-05-24T01:02:49.788Z,2.57
2018-05-24T01:05:17.579Z,3.07
2018-05-24T01:07:45.201Z,2.97
2018-05-24T01:10:12.909Z,3.13
2018-05-24T01:12:40.473Z,2.60
2018-05-24T01:15:08.039Z,3.50
2018-05-24T01:17:35.707Z,2.80
2018-05-24T01:20:03.297Z,2.60
2018-05-24T01:22:31.959Z,2.87
2018-05-24T01:24:59.920Z,3.23
2018-05-24T01:27:27.497Z,2.50
2018-05-24T01:29:55.088Z,2.60
2018-05-24T01:32:22.764Z,3.23
2018-05-24T01:34:50.373Z,2.53
2018-05-24T01:37:29.831Z,2.43
2018-05-24T01:39:57.636Z,2.47
2018-05-24T01:42:25.221Z,2.70
2018-05-24T01:44:52.775Z,2.97
2018-05-24T01:47:20.637Z,2.50
2018-05-24T01:49:48.515Z,2.50
2018-05-24T01:52:34.125Z,2.87
2018-05-24T01:55:01.920Z,2.50
2018-05-24T01:57:29.551Z,2.67
2018-05-24T01:59:57.153Z,2.47
2018-05-24T02:02:24.753Z,2.40
2018-05-24T02:04:52.363Z,2.77
2018-05-24T02:07:20.169Z,2.30
2018-05-24T02:09:47.801Z,2.90
2018-05-24T02:12:15.445Z,2.70
2018-05-24T02:14:43.158Z,2.30
2018-05-24T02:17:10.784Z,2.57
2018-05-24T02:19:38.358Z,3.00
2018-05-24T02:22:05.971Z,2.67
2018-05-24T02:24:33.598Z,2.17
2018-05-24T02:27:01.170Z,3.50
2018-05-24T02:29:28.760Z,2.47
2018-05-24T02:31:56.316Z,2.20
2018-05-24T02:34:24.216Z,2.50
2018-05-24T02:36:52.024Z,3.33
2018-05-24T02:39:19.672Z,2.40
2018-05-24T02:41:47.276Z,3.13
2018-05-24T02:44:14.852Z,3.00
2018-05-24T02:46:42.565Z,2.37
2018-05-24T02:49:10.134Z,2.57
2018-05-24T02:51:37.715Z,2.20
2018-05-24T02:54:05.413Z,2.43
2018-05-24T02:56:32.977Z,2.60
2018-05-24T02:59:00.587Z,2.30
2018-05-24T03:01:28.469Z,2.57
2018-05-24T03:03:56.046Z,2.30
2018-05-24T03:06:23.871Z,2.03
2018-05-24T03:08:51.692Z,2.97
2018-05-24T03:11:19.521Z,3.10
2018-05-24T03:13:47.446Z,2.40
2018-05-24T03:16:15.018Z,2.73
2018-05-24T03:18:42.888Z,2.23
2018-05-24T03:21:10.543Z,2.50
2018-05-24T03:23:38.131Z,2.83
2018-05-24T03:26:05.752Z,2.50
2018-05-24T03:28:33.692Z,4.20
2018-05-24T03:31:01.401Z,1.70
2018-05-24T03:33:28.990Z,3.03
2018-05-24T03:35:56.826Z,2.53
2018-05-24T03:38:24.396Z,2.43
2018-05-24T03:40:52.157Z,2.37
2018-05-24T03:43:19.749Z,2.03
2018-05-24T03:45:47.306Z,2.43
2018-05-24T03:48:15.060Z,2.33
2018-05-24T03:50:42.643Z,2.43
2018-05-24T03:53:10.210Z,2.63
2018-05-24T03:55:37.822Z,3.03
2018-05-24T03:58:05.401Z,2.60
2018-05-24T04:00:45.331Z,3.03
2018-05-24T04:03:24.652Z,2.73
2018-05-24T04:05:52.243Z,2.50
2018-05-24T04:08:19.996Z,2.00
2018-05-24T04:10:49.236Z,2.83
2018-05-24T04:13:17.355Z,2.63
2018-05-24T04:15:45.015Z,2.97
2018-05-24T04:18:12.959Z,2.30
2018-05-24T04:20:40.591Z,2.37
2018-05-24T04:23:08.225Z,2.50
2018-05-24T04:25:35.973Z,2.60
2018-05-24T04:28:03.544Z,2.60
2018-05-24T04:30:31.137Z,2.37
2018-05-24T04:32:58.722Z,2.70
2018-05-24T04:35:26.291Z,2.33
2018-05-24T04:37:53.877Z,2.80
2018-05-24T04:40:21.500Z,3.10
2018-05-24T04:42:49.144Z,3.13
2018-05-24T04:45:16.795Z,2.90
2018-05-24T04:47:44.392Z,3.20
2018-05-24T04:50:12.149Z,2.20
2018-05-24T04:52:39.745Z,2.30
2018-05-24T04:55:07.362Z,4.13
2018-05-24T04:57:35.026Z,2.90
2018-05-24T05:00:02.657Z,3.03
2018-05-24T05:02:30.241Z,2.40
2018-05-24T05:04:57.823Z,2.83
2018-05-24T05:07:25.550Z,3.10
2018-05-24T05:09:53.121Z,3.17
2018-05-24T05:12:20.756Z,3.20
2018-05-24T05:14:48.371Z,3.40
2018-05-24T05:17:16.021Z,3.63
2018-05-24T05:19:43.640Z,2.30
2018-05-24T05:22:11.212Z,3.00
2018-05-24T05:24:39.225Z,3.20
2018-05-24T05:27:07.066Z,2.60
2018-05-24T05:29:34.929Z,2.90
2018-05-24T05:32:02.989Z,3.30
2018-05-24T05:34:30.569Z,3.17
2018-05-24T05:36:58.176Z,2.80
2018-05-24T05:39:25.792Z,3.07
2018-05-24T05:41:53.409Z,2.63
2018-05-24T05:44:21.340Z,2.00
2018-05-24T05:46:48.973Z,2.97
2018-05-24T05:49:16.680Z,2.70
2018-05-24T05:51:44.368Z,2.90
2018-05-24T05:54:12.108Z,2.23
2018-05-24T05:56:39.935Z,3.30
2018-05-24T05:59:07.799Z,2.83
2018-05-24T06:01:35.496Z,3.10
2018-05-24T06:04:03.567Z,2.50
2018-05-24T06:06:31.182Z,2.43
2018-05-24T06:08:58.832Z,2.60
2018-05-24T06:11:26.906Z,3.30
2018-05-24T06:13:54.510Z,3.43
2018-05-24T06:16:22.091Z,2.90
2018-05-24T06:18:50.231Z,3.07
2018-05-24T06:21:17.948Z,3.27
2018-05-24T06:23:45.829Z,2.63
2018-05-24T06:26:13.526Z,2.70
2018-05-24T06:28:41.132Z,2.83
2018-05-24T06:31:08.717Z,3.03
2018-05-24T06:33:36.561Z,2.90
2018-05-24T06:36:04.155Z,2.97
2018-05-24T06:38:31.755Z,2.63
2018-05-24T06:40:59.328Z,3.87
2018-05-24T06:43:26.917Z,2.70
2018-05-24T06:45:54.552Z,2.80
2018-05-24T06:48:22.235Z,3.30
2018-05-24T06:50:50.058Z,2.97
2018-05-24T06:53:17.885Z,2.67
2018-05-24T06:55:45.692Z,2.80
2018-05-24T06:58:13.311Z,3.30
2018-05-24T07:00:40.888Z,3.80
2018-05-24T07:03:08.599Z,3.37
2018-05-24T07:05:36.200Z,3.40
2018-05-24T07:08:03.781Z,2.63
2018-05-24T07:10:31.744Z,3.13
2018-05-24T07:12:59.385Z,2.93
2018-05-24T07:15:26.970Z,3.50
2018-05-24T07:17:54.578Z,3.40
2018-05-24T07:20:22.153Z,3.83
2018-05-24T07:22:49.813Z,2.90
2018-05-24T07:25:17.614Z,3.70
2018-05-24T07:27:45.293Z,3.07
2018-05-24T07:30:13.178Z,3.43
2018-05-24T07:32:40.781Z,4.10
2018-05-24T07:35:08.429Z,3.40
2018-05-24T07:37:36.001Z,3.20
2018-05-24T07:40:03.667Z,4.40
2018-05-24T07:42:31.256Z,3.60
2018-05-24T07:44:58.887Z,4.60
2018-05-24T07:47:26.865Z,4.17
2018-05-24T07:49:54.457Z,4.00
2018-05-24T07:52:22.037Z,4.07
2018-05-24T07:54:50.066Z,4.17
2018-05-24T07:57:17.616Z,3.80
2018-05-24T07:59:45.233Z,4.90
2018-05-24T08:02:13.234Z,4.07
2018-05-24T08:04:40.816Z,4.17
2018-05-24T08:07:08.540Z,4.10
2018-05-24T08:09:36.290Z,5.00
2018-05-24T08:12:26.854Z,3.77
2018-05-24T08:14:54.821Z,3.93
2018-05-24T08:17:22.717Z,4.63
2018-05-24T08:19:50.293Z,5.10
2018-05-24T08:22:17.970Z,4.17
2018-05-24T08:24:45.838Z,4.33
2018-05-24T08:27:13.725Z,4.27
2018-05-24T08:29:41.353Z,5.80
2018-05-24T08:32:09.158Z,4.57
2018-05-24T08:34:36.758Z,4.20
2018-05-24T08:37:04.359Z,5.70
2018-05-24T08:39:31.936Z,5.07
2018-05-24T08:41:59.913Z,5.60
2018-05-24T08:44:27.511Z,4.77
2018-05-24T08:46:55.091Z,5.30
2018-05-24T08:49:23.332Z,5.40
2018-05-24T08:51:51.152Z,5.57
2018-05-24T08:54:18.783Z,4.60
2018-05-24T08:56:46.384Z,4.77
2018-05-24T08:59:14.609Z,4.87
2018-05-24T09:01:42.159Z,4.80
2018-05-24T09:04:09.736Z,4.73
2018-05-24T09:06:37.319Z,4.90
2018-05-24T09:09:05.908Z,4.97
2018-05-24T09:11:33.497Z,5.03
2018-05-24T09:14:01.140Z,4.67
2018-05-24T09:16:29.473Z,4.87
2018-05-24T09:18:57.097Z,5.00
2018-05-24T09:21:24.650Z,5.30
2018-05-24T09:23:52.256Z,4.40
2018-05-24T09:26:19.817Z,4.17
2018-05-24T09:28:47.439Z,5.00
2018-05-24T09:31:15.036Z,4.50
2018-05-24T09:33:42.598Z,5.30
2018-05-24T09:36:10.240Z,4.10
2018-05-24T09:38:38.145Z,4.70
2018-05-24T09:41:05.724Z,4.47
2018-05-24T09:43:33.313Z,4.20
2018-05-24T09:46:00.880Z,4.50
2018-05-24T09:48:28.844Z,4.63
2018-05-24T09:50:56.476Z,4.30
2018-05-24T09:53:27.403Z,4.30
2018-05-24T09:55:54.999Z,4.63
2018-05-24T09:58:22.616Z,4.17
2018-05-24T10:00:50.320Z,5.70
2018-05-24T10:03:17.872Z,4.27
2018-05-24T10:05:45.489Z,3.93
2018-05-24T10:08:13.122Z,3.80
2018-05-24T10:10:40.789Z,3.97
2018-05-24T10:13:08.353Z,3.30
2018-05-24T10:15:36.169Z,3.87
2018-05-24T10:18:03.746Z,3.53
2018-05-24T10:20:31.376Z,3.50
2018-05-24T10:22:58.937Z,4.40
2018-05-24T10:25:26.787Z,4.60
2018-05-24T10:27:54.424Z,4.03
2018-05-24T10:30:22.072Z,3.27
2018-05-24T10:33:04.172Z,3.23
2018-05-24T10:35:31.832Z,3.63
2018-05-24T10:37:59.529Z,3.80
2018-05-24T10:40:27.475Z,3.13
2018-05-24T10:42:55.305Z,4.47
2018-05-24T10:45:23.540Z,3.13
2018-05-24T10:47:51.158Z,3.57
2018-05-24T10:50:19.193Z,3.30
2018-05-24T10:52:47.030Z,3.40
2018-05-24T10:55:14.768Z,2.80
2018-05-24T10:57:42.431Z,2.60
2018-05-24T11:00:10.119Z,3.40
2018-05-24T11:02:38.051Z,2.80
2018-05-24T11:05:05.997Z,2.83
2018-05-24T11:07:33.654Z,2.77
2018-05-24T11:10:01.336Z,2.37
2018-05-24T11:12:29.011Z,3.27
2018-05-24T11:14:56.728Z,2.73
2018-05-24T11:17:24.470Z,2.80
2018-05-24T11:19:52.163Z,2.80
2018-05-24T11:22:19.880Z,2.53
2018-05-24T11:24:47.825Z,2.47
2018-05-24T11:27:15.592Z,2.40
2018-05-24T11:29:43.355Z,2.10
2018-05-24T11:32:11.318Z,2.07
2018-05-24T11:34:38.966Z,2.10
2018-05-24T11:37:06.967Z,2.23
2018-05-24T11:39:34.637Z,2.17
2018-05-24T11:42:02.384Z,2.20
2018-05-24T11:44:30.346Z,2.73
2018-05-24T11:46:58.034Z,2.07
2018-05-24T11:49:25.721Z,2.00
2018-05-24T11:51:53.748Z,2.00
2018-05-24T11:54:21.310Z,1.80
2018-05-24T11:56:49.292Z,2.27
2018-05-24T11:59:16.908Z,2.93
2018-05-24T12:01:44.576Z,2.40
2018-05-24T12:04:12.145Z,2.60
2018-05-24T12:06:39.938Z,2.00
2018-05-24T12:09:07.513Z,2.27
2018-05-24T12:11:35.532Z,1.90
2018-05-24T12:14:03.162Z,2.30
2018-05-24T12:16:30.924Z,2.20
2018-05-24T12:18:58.507Z,1.97
2018-05-24T12:21:26.155Z,2.23
2018-05-24T12:23:53.775Z,1.90
2018-05-24T12:26:21.347Z,2.13
2018-05-24T12:28:48.940Z,1.73
2018-05-24T12:31:16.622Z,2.40
2018-05-24T12:33:44.595Z,1.60
2018-05-24T12:36:12.465Z,2.10
2018-05-24T12:38:40.065Z,2.40
2018-05-24T12:41:07.881Z,1.80
2018-05-24T12:43:35.722Z,2.30
2018-05-24T12:46:03.305Z,2.43
2018-05-24T12:48:31.007Z,2.00
2018-05-24T12:50:58.648Z,1.87
2018-05-24T12:53:26.293Z,1.97
2018-05-24T12:55:54.333Z,1.77
2018-05-24T12:58:21.916Z,1.60
2018-05-24T13:00:49.489Z,2.23
2018-05-24T13:03:17.153Z,2.40
2018-05-24T13:05:45.013Z,2.20
2018-05-24T13:08:12.726Z,1.63
2018-05-24T13:10:40.410Z,3.27
2018-05-24T13:13:07.937Z,2.60
2018-05-24T13:15:35.578Z,1.50
2018-05-24T13:18:03.473Z,2.47
2018-05-24T13:20:31.060Z,1.93
2018-05-24T13:22:58.720Z,2.00
2018-05-24T13:25:26.547Z,2.37
2018-05-24T13:27:54.235Z,2.07
2018-05-24T13:30:21.882Z,1.90
2018-05-24T13:32:49.458Z,1.80
2018-05-24T13:35:17.131Z,2.07
2018-05-24T13:37:45.128Z,1.93
2018-05-24T13:40:12.702Z,1.30
2018-05-24T13:42:40.684Z,1.70
2018-05-24T13:45:08.655Z,2.30
2018-05-24T13:47:36.485Z,1.60
2018-05-24T13:50:04.202Z,1.80
2018-05-24T13:52:32.070Z,1.90
2018-05-24T13:54:59.675Z,1.63
2018-05-24T13:57:39.219Z,1.80
2018-05-24T14:00:06.777Z,2.03
2018-05-24T14:02:34.384Z,1.70
2018-05-24T14:05:02.210Z,2.13
2018-05-24T14:07:30.084Z,2.23
2018-05-24T14:09:58.089Z,2.70
2018-05-24T14:12:25.674Z,2.60
2018-05-24T14:14:53.258Z,2.70
2018-05-24T14:17:21.054Z,3.60
2018-05-24T14:19:48.624Z,3.10
2018-05-24T14:22:16.222Z,2.73
2018-05-24T14:24:43.861Z,3.00
2018-05-24T14:27:11.519Z,3.60
2018-05-24T14:29:39.149Z,3.00
2018-05-24T14:32:06.800Z,3.90
2018-05-24T14:34:34.961Z,3.87
2018-05-24T14:37:02.573Z,4.03
2018-05-24T14:39:30.245Z,4.53
2018-05-24T14:41:57.963Z,5.73
2018-05-24T14:44:25.638Z,4.90
2018-05-24T14:46:53.254Z,5.20
2018-05-24T14:49:21.095Z,4.10
2018-05-24T14:51:49.255Z,4.20
2018-05-24T14:54:16.831Z,4.00
2018-05-24T14:56:44.409Z,4.73
2018-05-24T14:59:12.064Z,4.63
2018-05-24T15:01:39.656Z,4.63
2018-05-24T15:04:07.330Z,3.90
2018-05-24T15:06:34.965Z,4.60
2018-05-24T15:09:02.635Z,3.93
2018-05-24T15:11:30.858Z,4.23
2018-05-24T15:13:58.442Z,4.70
2018-05-24T15:16:26.027Z,4.13
2018-05-24T15:18:53.639Z,4.23
2018-05-24T15:21:21.219Z,3.67
2018-05-24T15:23:49.184Z,4.80
2018-05-24T15:26:16.771Z,4.20
2018-05-24T15:28:44.979Z,3.77
2018-05-24T15:31:12.877Z,4.90
2018-05-24T15:33:40.750Z,4.20
2018-05-24T15:36:08.701Z,3.70
2018-05-24T15:38:36.601Z,3.87
2018-05-24T15:41:04.259Z,4.00
2018-05-24T15:43:31.919Z,4.17
2018-05-24T15:45:59.874Z,4.80
2018-05-24T15:48:27.687Z,4.40
2018-05-24T15:50:55.291Z,5.63
2018-05-24T15:53:22.904Z,4.13
2018-05-24T15:55:50.537Z,5.03
2018-05-24T15:58:18.163Z,5.20
2018-05-24T16:00:45.748Z,5.30
2018-05-24T16:03:13.381Z,4.90
2018-05-24T16:05:41.046Z,5.43
2018-05-24T16:08:08.886Z,4.67
2018-05-24T16:10:36.773Z,5.20
2018-05-24T16:13:04.437Z,4.93
2018-05-24T16:15:32.167Z,6.07
2018-05-24T16:17:59.828Z,5.23
2018-05-24T16:20:27.428Z,6.27
2018-05-24T16:22:55.053Z,5.70
2018-05-24T16:25:22.763Z,5.90
2018-05-24T16:27:50.392Z,5.43
2018-05-24T16:30:18.081Z,4.77
2018-05-24T16:32:45.690Z,5.77
2018-05-24T16:35:13.818Z,6.20
2018-05-24T16:37:41.432Z,6.07
2018-05-24T16:40:09.056Z,6.67
2018-05-24T16:42:36.839Z,5.83
2018-05-24T16:45:04.457Z,6.07
2018-05-24T16:47:32.058Z,6.83
2018-05-24T16:49:59.758Z,6.20
2018-05-24T16:52:27.362Z,6.17
2018-05-24T16:54:54.967Z,6.67
2018-05-24T16:57:22.547Z,6.40
2018-05-24T16:59:50.728Z,6.10
2018-05-24T17:02:18.760Z,6.93
2018-05-24T17:04:46.600Z,5.90
2018-05-24T17:07:14.590Z,6.70
2018-05-24T17:09:42.159Z,6.83
2018-05-24T17:12:09.761Z,7.57
2018-05-24T17:14:37.383Z,6.93
2018-05-24T17:17:04.983Z,7.30
2018-05-24T17:19:32.608Z,7.00
2018-05-24T17:22:00.224Z,7.40
2018-05-24T17:24:27.848Z,6.57
2018-05-24T17:26:55.701Z,8.20
2018-05-24T17:29:23.466Z,7.50
2018-05-24T17:31:51.264Z,7.73
2018-05-24T17:34:19.127Z,8.20
2018-05-24T17:36:47.108Z,7.10
2018-05-24T17:39:14.689Z,7.23
2018-05-24T17:41:42.271Z,7.10
2018-05-24T17:44:09.873Z,7.43
2018-05-24T17:46:37.493Z,6.10
2018-05-24T17:49:05.204Z,6.40
2018-05-24T17:51:32.811Z,6.70
2018-05-24T17:54:00.455Z,6.27
2018-05-24T17:56:29.431Z,7.17
2018-05-24T17:58:57.013Z,7.80
2018-05-24T18:01:24.631Z,8.23
2018-05-24T18:03:52.262Z,10.30
2018-05-24T18:06:19.875Z,9.40
2018-05-24T18:08:47.459Z,8.10
2018-05-24T18:11:15.124Z,8.70
2018-05-24T18:13:42.774Z,8.87
2018-05-24T18:16:10.674Z,7.90
2018-05-24T18:18:38.263Z,8.10
2018-05-24T18:21:05.932Z,8.10
2018-05-24T18:23:33.644Z,7.57
2018-05-24T18:26:01.269Z,9.67
2018-05-24T18:28:28.899Z,8.70
2018-05-24T18:30:56.734Z,9.00
2018-05-24T18:33:24.473Z,9.20
2018-05-24T18:35:52.068Z,8.27
2018-05-24T18:38:19.668Z,7.93
2018-05-24T18:40:47.399Z,9.20
2018-05-24T18:43:14.984Z,8.40
2018-05-24T18:45:42.561Z,9.30
2018-05-24T18:48:10.248Z,9.50
2018-05-24T18:50:37.925Z,10.47
2018-05-24T18:53:05.914Z,9.00
2018-05-24T18:55:33.592Z,8.93
2018-05-24T18:58:01.196Z,8.90
2018-05-24T19:00:28.846Z,9.53
2018-05-24T19:02:56.487Z,9.70
2018-05-24T19:05:24.067Z,9.50
2018-05-24T19:07:51.907Z,9.83
2018-05-24T19:10:19.575Z,9.60
2018-05-24T19:12:47.165Z,9.40
2018-05-24T19:15:14.823Z,9.03
2018-05-24T19:17:42.463Z,8.63
2018-05-24T19:20:10.063Z,9.60
2018-05-24T19:22:37.672Z,10.03
2018-05-24T19:25:05.669Z,10.50
2018-05-24T19:27:33.274Z,11.60
2018-05-24T19:30:00.865Z,11.37
2018-05-24T19:32:28.892Z,10.70
2018-05-24T19:34:56.931Z,11.60
2018-05-24T19:37:24.719Z,11.10
2018-05-24T19:39:52.725Z,11.20
2018-05-24T19:42:20.392Z,12.30
2018-05-24T19:44:48.037Z,10.63
2018-05-24T19:47:15.753Z,11.23
2018-05-24T19:49:43.506Z,11.77
2018-05-24T19:52:11.096Z,12.27
2018-05-24T19:54:38.690Z,11.77
2018-05-24T19:57:06.511Z,11.00
2018-05-24T19:59:34.094Z,10.77
2018-05-24T20:02:01.764Z,10.50
2018-05-24T20:04:29.414Z,10.57
2018-05-24T20:06:57.004Z,12.40
2018-05-24T20:09:25.080Z,12.13
2018-05-24T20:11:52.718Z,12.23
2018-05-24T20:14:20.478Z,12.27
2018-05-24T20:16:48.106Z,11.23
2018-05-24T20:19:15.763Z,11.50
2018-05-24T20:21:43.340Z,11.53
2018-05-24T20:24:10.970Z,11.57
2018-05-24T20:26:38.654Z,11.73
2018-05-24T20:29:06.541Z,10.73
2018-05-24T20:31:34.147Z,12.47
2018-05-24T20:34:01.816Z,12.30
2018-05-24T20:36:29.641Z,11.20
2018-05-24T20:38:57.222Z,11.20
2018-05-24T20:41:24.831Z,10.33
2018-05-24T20:43:52.442Z,11.43
2018-05-24T20:46:20.065Z,11.00
2018-05-24T20:48:47.681Z,10.83
2018-05-24T20:51:15.613Z,10.37
2018-05-24T20:53:43.336Z,12.43
2018-05-24T20:56:10.954Z,11.97
2018-05-24T20:58:38.653Z,12.50
2018-05-24T21:01:06.453Z,11.80
2018-05-24T21:03:34.201Z,12.17
2018-05-24T21:06:01.795Z,13.40
2018-05-24T21:08:29.514Z,11.80
2018-05-24T21:10:58.326Z,12.60
2018-05-24T21:13:26.249Z,13.43
2018-05-24T21:15:53.928Z,12.60
2018-05-24T21:18:21.598Z,12.43
2018-05-24T21:20:49.217Z,11.30
2018-05-24T21:23:17.026Z,10.83
2018-05-24T21:25:44.640Z,11.67
2018-05-24T21:28:12.626Z,10.07
2018-05-24T21:30:40.247Z,10.90
2018-05-24T21:33:07.902Z,10.33
2018-05-24T21:35:35.891Z,9.60
2018-05-24T21:38:03.522Z,11.20
2018-05-24T21:40:31.526Z,11.77
2018-05-24T21:42:59.175Z,10.83
2018-05-24T21:45:27.745Z,9.90
2018-05-24T21:47:55.965Z,10.77
2018-05-24T21:50:23.563Z,10.87
2018-05-24T21:52:51.149Z,10.90
2018-05-24T21:55:18.752Z,11.77
2018-05-24T21:57:46.475Z,10.47
2018-05-24T22:00:14.098Z,10.43
2018-05-24T22:02:41.681Z,9.90
2018-05-24T22:05:09.355Z,10.63
2018-05-24T22:07:37.063Z,10.77
2018-05-24T22:10:04.735Z,9.97
2018-05-24T22:12:32.347Z,11.00
2018-05-24T22:14:59.932Z,11.63
2018-05-24T22:17:27.882Z,11.60
2018-05-24T22:19:55.467Z,10.63
2018-05-24T22:22:23.069Z,11.50
2018-05-24T22:24:50.749Z,10.80
2018-05-24T22:27:18.344Z,11.70
2018-05-24T22:29:45.931Z,11.43
2018-05-24T22:32:13.539Z,11.20
2018-05-24T22:34:41.139Z,11.40
2018-05-24T22:37:09.120Z,11.17
2018-05-24T22:39:36.943Z,11.10
2018-05-24T22:42:04.633Z,11.70
2018-05-24T22:44:32.550Z,11.57
2018-05-24T22:47:00.255Z,12.10
2018-05-24T22:49:27.847Z,10.83
2018-05-24T22:51:55.564Z,10.47
2018-05-24T22:54:23.479Z,11.27
2018-05-24T22:56:51.098Z,11.20
2018-05-24T22:59:19.016Z,11.30
2018-05-24T23:01:46.633Z,11.87
2018-05-24T23:04:14.591Z,11.33
2018-05-24T23:06:42.208Z,11.27
2018-05-24T23:09:09.803Z,11.10
2018-05-24T23:11:37.418Z,11.70
2018-05-24T23:14:05.796Z,12.67
2018-05-24T23:16:33.707Z,12.20
2018-05-24T23:19:01.304Z,12.93
2018-05-24T23:21:29.081Z,14.00
2018-05-24T23:23:56.666Z,14.40
2018-05-24T23:26:24.287Z,15.40
2018-05-24T23:28:52.353Z,14.27
2018-05-24T23:31:20.181Z,14.63
2018-05-24T23:33:48.001Z,15.87
2018-05-24T23:36:14.896Z,16.10
2018-05-24T23:38:42.715Z,15.80
2018-05-24T23:41:10.678Z,16.10
2018-05-24T23:43:38.260Z,17.07
2018-05-24T23:46:05.885Z,17.00
2018-05-24T23:48:33.607Z,16.67
2018-05-24T23:51:01.212Z,16.97
2018-05-24T23:53:29.066Z,18.03
2018-05-24T23:55:56.648Z,18.80
2018-05-24T23:58:24.683Z,19.93
